createdAt,value
2018-08-22T00:00:49.401Z,19.10
2018-08-22T00:03:16.959Z,19.10
2018-08-22T00:05:44.516Z,19.00
2018-08-22T00:08:12.566Z,19.00
2018-08-22T00:10:40.121Z,19.10
2018-08-22T00:13:07.675Z,19.10
2018-08-22T00:15:35.264Z,19.00
2018-08-22T00:18:02.820Z,18.90
2018-08-22T00:20:30.378Z,18.90
2018-08-22T00:22:57.969Z,18.80
2018-08-22T00:25:25.547Z,18.80
2018-08-22T00:27:53.081Z,18.70
2018-08-22T00:30:22.271Z,18.70
2018-08-22T00:32:49.828Z,18.70
2018-08-22T00:35:17.376Z,18.60
2018-08-22T00:37:44.962Z,18.60
2018-08-22T00:40:12.520Z,18.50
2018-08-22T00:42:40.077Z,18.50
2018-08-22T00:45:07.706Z,18.40
2018-08-22T00:47:35.216Z,18.40
2018-08-22T00:50:02.778Z,18.40
2018-08-22T00:52:30.945Z,18.50
2018-08-22T00:54:58.506Z,18.50
2018-08-22T00:57:26.061Z,18.60
2018-08-22T00:59:53.648Z,18.60
2018-08-22T01:02:21.209Z,18.70
2018-08-22T01:04:48.764Z,18.60
2018-08-22T01:07:16.343Z,18.60
2018-08-22T01:09:43.894Z,18.50
2018-08-22T01:12:11.452Z,18.40
2018-08-22T01:14:39.608Z,18.30
2018-08-22T01:17:07.175Z,18.30
2018-08-22T01:19:34.736Z,18.20
2018-08-22T01:22:02.323Z,18.10
2018-08-22T01:24:29.876Z,18.30
2018-08-22T01:26:57.430Z,18.20
2018-08-22T01:29:25.024Z,18.20
2018-08-22T01:31:53.353Z,18.30
2018-08-22T01:34:20.908Z,18.30
2018-08-22T01:36:48.504Z,18.20
2018-08-22T01:39:16.056Z,18.20
2018-08-22T01:41:43.611Z,18.10
2018-08-22T01:44:11.204Z,18.10
2018-08-22T01:46:38.764Z,18.20
2018-08-22T01:49:07.088Z,18.10
2018-08-22T01:51:34.671Z,18.10
2018-08-22T01:54:02.231Z,18.00
2018-08-22T01:56:29.786Z,17.90
2018-08-22T01:58:57.468Z,17.90
2018-08-22T02:01:24.957Z,17.90
2018-08-22T02:03:52.544Z,18.00
2018-08-22T02:06:20.163Z,17.90
2018-08-22T02:08:47.689Z,17.90
2018-08-22T02:11:15.250Z,17.80
2018-08-22T02:13:42.842Z,17.80
2018-08-22T02:16:10.396Z,17.70
2018-08-22T02:18:37.954Z,17.70
2018-08-22T02:21:05.565Z,17.60
2018-08-22T02:23:33.125Z,17.60
2018-08-22T02:26:00.685Z,17.50
2018-08-22T02:28:28.282Z,17.50
2018-08-22T02:30:55.843Z,17.50
2018-08-22T02:33:23.412Z,17.40
2018-08-22T02:35:51.014Z,17.40
2018-08-22T02:38:19.346Z,17.30
2018-08-22T02:40:46.909Z,17.20
2018-08-22T02:43:14.531Z,17.30
2018-08-22T02:45:42.094Z,17.30
2018-08-22T02:48:09.657Z,17.30
2018-08-22T02:50:37.256Z,17.30
2018-08-22T02:53:04.819Z,17.20
2018-08-22T02:55:32.384Z,17.20
2018-08-22T02:57:59.985Z,17.30
2018-08-22T03:00:27.548Z,17.40
2018-08-22T03:02:55.877Z,17.20
2018-08-22T03:05:23.961Z,17.20
2018-08-22T03:07:51.518Z,17.20
2018-08-22T03:10:19.086Z,17.20
2018-08-22T03:12:46.682Z,17.10
2018-08-22T03:15:15.011Z,17.10
2018-08-22T03:17:42.574Z,17.10
2018-08-22T03:20:10.164Z,17.10
2018-08-22T03:22:38.495Z,17.20
2018-08-22T03:25:06.053Z,17.20
2018-08-22T03:27:34.551Z,17.20
2018-08-22T03:30:02.112Z,17.10
2018-08-22T03:32:29.676Z,17.10
2018-08-22T03:34:57.265Z,17.10
2018-08-22T03:37:24.821Z,17.00
2018-08-22T03:39:52.386Z,17.00
2018-08-22T03:42:19.973Z,16.90
2018-08-22T03:44:48.305Z,16.90
2018-08-22T03:47:15.871Z,16.90
2018-08-22T03:49:43.477Z,16.80
2018-08-22T03:52:11.807Z,16.80
2018-08-22T03:54:39.370Z,16.80
2018-08-22T03:57:06.959Z,16.80
2018-08-22T03:59:34.520Z,16.70
2018-08-22T04:02:02.082Z,16.70
2018-08-22T04:04:29.684Z,16.70
2018-08-22T04:06:57.250Z,16.60
2018-08-22T04:09:24.815Z,16.60
2018-08-22T04:11:52.870Z,16.60
2018-08-22T04:14:20.434Z,16.50
2018-08-22T04:16:47.998Z,16.50
2018-08-22T04:19:15.596Z,16.50
2018-08-22T04:21:43.162Z,16.50
2018-08-22T04:24:10.745Z,16.50
2018-08-22T04:26:38.341Z,16.50
2018-08-22T04:29:05.911Z,16.50
2018-08-22T04:31:33.472Z,16.40
2018-08-22T04:34:01.090Z,16.50
2018-08-22T04:36:28.662Z,16.40
2018-08-22T04:38:56.994Z,16.40
2018-08-22T04:41:24.595Z,16.40
2018-08-22T04:43:52.165Z,16.40
2018-08-22T04:46:20.500Z,16.40
2018-08-22T04:48:48.110Z,16.30
2018-08-22T04:51:15.673Z,16.40
2018-08-22T04:53:44.001Z,16.40
2018-08-22T04:56:11.622Z,16.30
2018-08-22T04:58:39.191Z,16.30
2018-08-22T05:01:06.757Z,16.40
2018-08-22T05:03:34.369Z,16.30
2018-08-22T05:06:01.958Z,16.40
2018-08-22T05:08:29.518Z,16.40
2018-08-22T05:10:58.268Z,16.50
2018-08-22T05:13:25.831Z,16.50
2018-08-22T05:15:53.397Z,16.50
2018-08-22T05:18:21.002Z,16.70
2018-08-22T05:20:48.574Z,16.90
2018-08-22T05:23:16.145Z,16.80
2018-08-22T05:25:43.740Z,16.80
2018-08-22T05:28:11.322Z,16.80
2018-08-22T05:30:38.891Z,16.70
2018-08-22T05:33:06.539Z,16.70
2018-08-22T05:35:34.106Z,16.60
2018-08-22T05:38:01.667Z,16.60
2018-08-22T05:40:29.293Z,16.60
2018-08-22T05:42:56.838Z,16.60
2018-08-22T05:45:24.397Z,16.60
2018-08-22T05:47:51.999Z,16.60
2018-08-22T05:50:19.566Z,16.70
2018-08-22T05:52:47.133Z,16.70
2018-08-22T05:55:14.760Z,16.90
2018-08-22T05:57:42.411Z,17.10
2018-08-22T06:00:09.882Z,17.10
2018-08-22T06:02:37.493Z,17.10
2018-08-22T06:05:05.057Z,17.10
2018-08-22T06:07:32.622Z,17.20
2018-08-22T06:10:00.238Z,17.20
2018-08-22T06:12:27.815Z,17.20
2018-08-22T06:14:55.381Z,17.20
2018-08-22T06:17:22.985Z,17.30
2018-08-22T06:19:50.552Z,17.30
2018-08-22T06:22:18.122Z,17.50
2018-08-22T06:24:45.745Z,17.60
2018-08-22T06:27:14.081Z,17.60
2018-08-22T06:29:41.656Z,17.60
2018-08-22T06:32:09.281Z,17.70
2018-08-22T06:34:36.852Z,17.70
2018-08-22T06:37:04.419Z,17.80
2018-08-22T06:39:32.044Z,17.90
2018-08-22T06:42:00.374Z,18.00
2018-08-22T06:44:27.948Z,18.00
2018-08-22T06:46:56.122Z,18.00
2018-08-22T06:49:23.694Z,18.10
2018-08-22T06:51:51.278Z,18.30
2018-08-22T06:54:20.025Z,18.40
2018-08-22T06:56:47.599Z,18.40
2018-08-22T06:59:15.157Z,18.40
2018-08-22T07:01:42.809Z,18.50
2018-08-22T07:04:10.347Z,18.50
2018-08-22T07:06:37.907Z,18.60
2018-08-22T07:09:05.535Z,18.70
2018-08-22T07:11:33.865Z,18.90
2018-08-22T07:14:01.441Z,18.90
2018-08-22T07:16:29.098Z,19.00
2018-08-22T07:18:56.670Z,19.10
2018-08-22T07:21:24.238Z,19.10
2018-08-22T07:23:51.912Z,19.20
2018-08-22T07:26:19.490Z,19.40
2018-08-22T07:28:47.823Z,19.60
2018-08-22T07:31:15.423Z,19.60
2018-08-22T07:33:43.751Z,19.80
2018-08-22T07:36:11.324Z,19.70
2018-08-22T07:38:40.224Z,19.80
2018-08-22T07:41:07.783Z,19.90
2018-08-22T07:43:35.351Z,20.00
2018-08-22T07:46:02.984Z,20.10
2018-08-22T07:48:30.561Z,20.30
2018-08-22T07:50:58.127Z,20.60
2018-08-22T07:53:25.771Z,20.70
2018-08-22T07:55:54.067Z,20.90
2018-08-22T07:58:21.634Z,20.90
2018-08-22T08:00:49.241Z,20.90
2018-08-22T08:03:17.571Z,21.10
2018-08-22T08:05:45.156Z,21.10
2018-08-22T08:08:12.770Z,21.20
2018-08-22T08:10:40.331Z,21.20
2018-08-22T08:13:07.934Z,21.30
2018-08-22T08:15:35.513Z,21.40
2018-08-22T08:18:03.073Z,21.50
2018-08-22T08:20:31.416Z,21.70
2018-08-22T08:22:59.589Z,21.70
2018-08-22T08:25:27.164Z,21.80
2018-08-22T08:27:54.728Z,21.90
2018-08-22T08:30:22.347Z,22.00
2018-08-22T08:32:49.923Z,22.10
2018-08-22T08:35:17.485Z,22.20
2018-08-22T08:37:45.105Z,22.30
2018-08-22T08:40:13.439Z,22.50
2018-08-22T08:42:41.004Z,22.50
2018-08-22T08:45:08.622Z,22.70
2018-08-22T08:47:36.179Z,22.80
2018-08-22T08:50:03.757Z,22.90
2018-08-22T08:52:31.426Z,23.00
2018-08-22T08:54:58.972Z,23.10
2018-08-22T08:57:26.741Z,23.20
2018-08-22T08:59:54.149Z,23.30
2018-08-22T09:02:21.716Z,23.50
2018-08-22T09:04:49.270Z,23.60
2018-08-22T09:07:17.229Z,23.70
2018-08-22T09:09:44.793Z,23.90
2018-08-22T09:12:12.401Z,24.10
2018-08-22T09:14:40.520Z,24.20
2018-08-22T09:17:08.076Z,24.30
2018-08-22T09:19:35.631Z,24.40
2018-08-22T09:22:03.260Z,24.50
2018-08-22T09:24:31.612Z,24.60
2018-08-22T09:26:59.148Z,24.50
2018-08-22T09:29:26.800Z,24.60
2018-08-22T09:31:54.349Z,24.70
2018-08-22T09:34:21.917Z,24.90
2018-08-22T09:36:49.542Z,24.90
2018-08-22T09:39:17.905Z,25.10
2018-08-22T09:41:45.450Z,25.10
2018-08-22T09:44:13.156Z,25.20
2018-08-22T09:46:40.719Z,25.20
2018-08-22T09:49:08.246Z,25.20
2018-08-22T09:51:35.862Z,25.30
2018-08-22T09:54:03.657Z,25.50
2018-08-22T09:56:31.219Z,25.60
2018-08-22T09:58:58.838Z,25.60
2018-08-22T10:01:26.400Z,25.70
2018-08-22T10:03:53.973Z,25.90
2018-08-22T10:06:21.617Z,26.00
2018-08-22T10:08:49.162Z,26.00
2018-08-22T10:11:17.491Z,26.20
2018-08-22T10:13:45.476Z,26.10
2018-08-22T10:16:13.041Z,26.20
2018-08-22T10:18:40.604Z,26.30
2018-08-22T10:21:09.078Z,26.40
2018-08-22T10:23:36.639Z,26.50
2018-08-22T10:26:04.202Z,26.50
2018-08-22T10:28:31.822Z,26.60
2018-08-22T10:30:59.383Z,26.70
2018-08-22T10:33:27.149Z,26.70
2018-08-22T10:35:55.499Z,26.90
2018-08-22T10:38:23.058Z,26.80
2018-08-22T10:40:50.616Z,27.00
2018-08-22T10:43:18.231Z,27.10
2018-08-22T10:45:45.792Z,27.30
2018-08-22T10:48:13.360Z,27.30
2018-08-22T10:50:41.067Z,27.40
2018-08-22T10:53:08.528Z,27.50
2018-08-22T10:55:36.092Z,27.60
2018-08-22T10:58:03.695Z,27.60
2018-08-22T11:00:31.251Z,27.70
2018-08-22T11:02:58.819Z,27.80
2018-08-22T11:05:26.425Z,27.80
2018-08-22T11:07:54.097Z,27.80
2018-08-22T11:10:21.666Z,27.90
2018-08-22T11:12:50.083Z,28.00
2018-08-22T11:15:18.410Z,28.00
2018-08-22T11:17:45.972Z,28.10
2018-08-22T11:20:13.588Z,28.10
2018-08-22T11:23:18.042Z,28.30
2018-08-22T11:26:23.082Z,28.50
2018-08-22T11:29:27.785Z,28.50
2018-08-22T11:32:32.645Z,28.70
2018-08-22T11:34:59.702Z,28.70
2018-08-22T11:37:27.263Z,28.70
2018-08-22T11:39:54.881Z,28.80
2018-08-22T11:42:22.443Z,28.90
2018-08-22T11:44:50.013Z,29.00
2018-08-22T11:47:17.629Z,29.10
2018-08-22T11:49:45.191Z,29.10
2018-08-22T11:52:12.751Z,29.00
2018-08-22T11:54:40.361Z,29.00
2018-08-22T11:57:07.919Z,29.00
2018-08-22T11:59:35.478Z,29.00
2018-08-22T12:02:03.189Z,29.10
2018-08-22T12:04:30.657Z,29.10
2018-08-22T12:06:58.224Z,29.20
2018-08-22T12:09:25.837Z,29.40
2018-08-22T12:11:53.399Z,29.40
2018-08-22T12:14:20.959Z,29.50
2018-08-22T12:16:49.375Z,29.60
2018-08-22T12:19:16.941Z,29.60
2018-08-22T12:21:44.506Z,29.60
2018-08-22T12:24:12.111Z,29.80
2018-08-22T12:26:39.704Z,30.00
2018-08-22T12:29:07.231Z,30.00
2018-08-22T12:31:34.846Z,30.00
2018-08-22T12:34:02.412Z,30.10
2018-08-22T12:36:29.970Z,30.20
2018-08-22T12:38:57.583Z,30.20
2018-08-22T12:41:25.144Z,30.20
2018-08-22T12:43:52.702Z,30.50
2018-08-22T12:46:20.357Z,30.50
2018-08-22T12:48:47.921Z,30.50
2018-08-22T12:51:15.480Z,30.60
2018-08-22T12:53:43.123Z,30.60
2018-08-22T12:56:10.681Z,30.70
2018-08-22T12:58:38.242Z,30.70
2018-08-22T13:01:07.818Z,30.70
2018-08-22T13:03:35.375Z,30.70
2018-08-22T13:06:02.945Z,30.70
2018-08-22T13:08:30.578Z,30.70
2018-08-22T13:10:58.178Z,30.80
2018-08-22T13:13:25.696Z,31.00
2018-08-22T13:15:53.301Z,31.10
2018-08-22T13:18:20.862Z,31.30
2018-08-22T13:20:48.435Z,31.30
2018-08-22T13:23:16.072Z,31.30
2018-08-22T13:25:43.626Z,31.40
2018-08-22T13:28:11.192Z,31.40
2018-08-22T13:30:39.259Z,31.40
2018-08-22T13:33:06.825Z,31.30
2018-08-22T13:35:34.388Z,31.30
2018-08-22T13:38:02.563Z,31.30
2018-08-22T13:40:30.122Z,31.30
2018-08-22T13:42:57.687Z,31.30
2018-08-22T13:45:25.891Z,31.40
2018-08-22T13:47:53.414Z,31.60
2018-08-22T13:50:20.977Z,31.60
2018-08-22T13:52:49.458Z,31.70
2018-08-22T13:55:17.030Z,31.70
2018-08-22T13:57:44.607Z,31.70
2018-08-22T14:00:13.068Z,31.80
2018-08-22T14:02:40.636Z,31.70
2018-08-22T14:05:08.235Z,31.70
2018-08-22T14:07:36.327Z,31.90
2018-08-22T14:10:03.990Z,31.90
2018-08-22T14:12:31.449Z,31.90
2018-08-22T14:14:59.060Z,31.90
2018-08-22T14:17:26.624Z,31.90
2018-08-22T14:19:54.197Z,31.90
2018-08-22T14:22:21.869Z,32.00
2018-08-22T14:24:49.461Z,32.00
2018-08-22T14:27:16.987Z,32.00
2018-08-22T14:29:44.598Z,32.00
2018-08-22T14:32:12.163Z,32.00
2018-08-22T14:34:39.739Z,32.10
2018-08-22T14:37:07.351Z,32.20
2018-08-22T14:39:35.679Z,32.30
2018-08-22T14:42:03.242Z,32.20
2018-08-22T14:44:30.848Z,32.30
2018-08-22T14:46:59.174Z,32.50
2018-08-22T14:49:26.740Z,32.40
2018-08-22T14:51:54.734Z,32.60
2018-08-22T14:54:22.265Z,32.70
2018-08-22T14:56:49.831Z,32.70
2018-08-22T14:59:18.414Z,32.70
2018-08-22T15:01:45.978Z,32.70
2018-08-22T15:04:13.541Z,32.80
2018-08-22T15:06:41.149Z,32.80
2018-08-22T15:09:08.706Z,32.80
2018-08-22T15:11:37.041Z,32.80
2018-08-22T15:14:05.148Z,32.80
2018-08-22T15:16:32.681Z,32.80
2018-08-22T15:19:01.634Z,32.80
2018-08-22T15:21:29.246Z,32.80
2018-08-22T15:23:56.808Z,32.90
2018-08-22T15:26:24.379Z,32.80
2018-08-22T15:28:52.633Z,32.80
2018-08-22T15:31:20.201Z,32.80
2018-08-22T15:33:47.762Z,33.10
2018-08-22T15:36:15.839Z,33.10
2018-08-22T15:38:43.414Z,33.30
2018-08-22T15:41:10.992Z,33.30
2018-08-22T15:43:39.029Z,33.50
2018-08-22T15:46:06.588Z,33.50
2018-08-22T15:48:34.156Z,33.50
2018-08-22T15:51:01.782Z,33.50
2018-08-22T15:53:29.347Z,33.70
2018-08-22T15:55:56.908Z,33.70
2018-08-22T15:58:24.519Z,33.70
2018-08-22T16:00:52.079Z,33.70
2018-08-22T16:03:19.634Z,33.80
2018-08-22T16:05:47.264Z,33.90
2018-08-22T16:08:14.885Z,33.90
2018-08-22T16:10:42.401Z,34.10
2018-08-22T16:13:10.783Z,34.10
2018-08-22T16:15:38.340Z,34.10
2018-08-22T16:18:05.898Z,34.10
2018-08-22T16:20:34.590Z,34.10
2018-08-22T16:23:02.149Z,34.20
2018-08-22T16:25:29.713Z,34.20
2018-08-22T16:27:57.331Z,34.20
2018-08-22T16:32:52.467Z,34.40
2018-08-22T16:35:20.113Z,34.50
2018-08-22T16:37:47.673Z,34.50
2018-08-22T16:40:15.230Z,34.50
2018-08-22T16:42:44.478Z,34.50
2018-08-22T16:45:12.045Z,34.50
2018-08-22T16:47:39.607Z,34.50
2018-08-22T16:50:07.221Z,34.40
2018-08-22T16:52:34.782Z,34.30
2018-08-22T16:55:02.348Z,34.50
2018-08-22T16:57:30.835Z,34.40
2018-08-22T16:59:58.396Z,34.40
2018-08-22T17:02:25.953Z,34.30
2018-08-22T17:04:53.562Z,34.20
2018-08-22T17:07:21.125Z,34.00
2018-08-22T17:09:48.682Z,34.00
2018-08-22T17:12:16.295Z,33.80
2018-08-22T17:14:43.856Z,33.60
2018-08-22T17:17:11.418Z,33.50
2018-08-22T17:19:39.940Z,33.30
2018-08-22T17:22:07.517Z,33.10
2018-08-22T17:24:35.081Z,32.90
2018-08-22T17:27:03.096Z,32.70
2018-08-22T17:29:30.657Z,32.60
2018-08-22T17:31:58.220Z,32.40
2018-08-22T17:34:25.824Z,32.20
2018-08-22T17:36:53.385Z,32.00
2018-08-22T17:39:20.952Z,31.80
2018-08-22T17:41:48.601Z,31.60
2018-08-22T17:44:16.166Z,31.60
2018-08-22T17:46:43.730Z,31.50
2018-08-22T17:49:12.053Z,31.30
2018-08-22T17:51:40.386Z,31.00
2018-08-22T17:54:07.958Z,30.90
2018-08-22T17:56:36.021Z,30.80
2018-08-22T17:59:03.593Z,30.60
2018-08-22T18:01:32.379Z,30.50
2018-08-22T18:03:59.994Z,30.30
2018-08-22T18:06:27.670Z,30.40
2018-08-22T18:08:55.134Z,30.20
2018-08-22T18:11:22.736Z,30.10
2018-08-22T18:13:50.333Z,30.00
2018-08-22T18:16:17.867Z,29.80
2018-08-22T18:18:45.472Z,29.90
2018-08-22T18:21:13.030Z,29.70
2018-08-22T18:23:40.587Z,29.60
2018-08-22T18:26:08.220Z,29.50
2018-08-22T18:28:35.765Z,29.30
2018-08-22T18:31:03.325Z,29.20
2018-08-22T18:33:31.484Z,29.20
2018-08-22T18:35:59.055Z,29.10
2018-08-22T18:38:26.666Z,28.90
2018-08-22T18:40:54.268Z,28.80
2018-08-22T18:43:21.829Z,28.60
2018-08-22T18:45:49.394Z,28.70
2018-08-22T18:48:17.465Z,28.50
2018-08-22T18:50:45.030Z,28.30
2018-08-22T18:53:12.888Z,28.20
2018-08-22T18:55:40.517Z,28.00
2018-08-22T18:58:08.082Z,27.80
2018-08-22T19:00:35.738Z,27.70
2018-08-22T19:03:03.271Z,27.60
2018-08-22T19:05:30.828Z,27.40
2018-08-22T19:07:58.385Z,27.30
2018-08-22T19:10:26.985Z,27.10
2018-08-22T19:12:54.543Z,27.00
2018-08-22T19:15:22.888Z,26.80
2018-08-22T19:17:50.539Z,26.80
2018-08-22T19:20:18.067Z,26.70
2018-08-22T19:22:45.626Z,26.60
2018-08-22T19:25:14.058Z,26.30
2018-08-22T19:27:41.567Z,26.30
2018-08-22T19:30:09.901Z,26.10
2018-08-22T19:32:37.867Z,26.10
2018-08-22T19:35:05.430Z,26.00
2018-08-22T19:37:33.000Z,26.10
2018-08-22T19:40:00.630Z,25.90
2018-08-22T19:42:28.196Z,25.90
2018-08-22T19:44:55.762Z,25.70
2018-08-22T19:47:23.946Z,25.60
2018-08-22T19:49:51.518Z,25.50
2018-08-22T19:52:19.078Z,25.40
2018-08-22T19:54:46.698Z,25.30
2018-08-22T19:57:14.272Z,25.20
2018-08-22T19:59:41.822Z,25.10
2018-08-22T20:02:10.333Z,25.10
2018-08-22T20:04:37.917Z,24.90
2018-08-22T20:07:05.487Z,24.80
2018-08-22T20:09:33.104Z,24.70
2018-08-22T20:12:00.662Z,24.60
2018-08-22T20:14:28.223Z,24.60
2018-08-22T20:16:55.868Z,24.50
2018-08-22T20:19:23.391Z,24.40
2018-08-22T20:21:50.959Z,24.40
2018-08-22T20:24:18.696Z,24.30
2018-08-22T20:26:46.126Z,24.20
2018-08-22T20:29:13.684Z,24.10
2018-08-22T20:31:41.625Z,24.10
2018-08-22T20:34:09.957Z,23.90
2018-08-22T20:36:37.620Z,23.90
2018-08-22T20:39:05.138Z,23.90
2018-08-22T20:41:33.482Z,23.70
2018-08-22T20:44:01.043Z,23.70
2018-08-22T20:46:28.650Z,23.70
2018-08-22T20:48:56.220Z,23.60
2018-08-22T20:51:23.785Z,23.70
2018-08-22T20:53:51.390Z,23.60
2018-08-22T20:56:18.950Z,23.60
2018-08-22T20:58:46.510Z,23.50
2018-08-22T21:01:14.141Z,23.60
2018-08-22T21:03:41.706Z,23.70
2018-08-22T21:06:09.268Z,23.60
2018-08-22T21:08:37.528Z,23.50
2018-08-22T21:11:05.023Z,23.40
2018-08-22T21:13:32.582Z,23.30
2018-08-22T21:16:00.221Z,23.20
2018-08-22T21:18:27.778Z,23.30
2018-08-22T21:20:55.338Z,23.20
2018-08-22T21:23:22.956Z,23.10
2018-08-22T21:25:51.280Z,22.80
2018-08-22T21:28:18.849Z,22.80
2018-08-22T21:30:46.447Z,22.70
2018-08-22T21:33:14.010Z,22.60
2018-08-22T21:35:41.569Z,22.50
2018-08-22T21:38:10.512Z,22.50
2018-08-22T21:40:38.069Z,22.40
2018-08-22T21:43:05.626Z,22.40
2018-08-22T21:45:33.237Z,22.30
2018-08-22T21:48:00.804Z,22.20
2018-08-22T21:50:28.363Z,22.20
2018-08-22T21:52:56.473Z,22.30
2018-08-22T21:55:24.031Z,22.20
2018-08-22T21:57:52.386Z,22.10
2018-08-22T22:00:20.436Z,22.00
2018-08-22T22:02:48.000Z,22.00
2018-08-22T22:05:15.573Z,22.10
2018-08-22T22:07:43.627Z,22.10
2018-08-22T22:10:11.191Z,22.00
2018-08-22T22:12:38.751Z,21.90
2018-08-22T22:15:06.372Z,21.80
2018-08-22T22:17:34.169Z,21.80
2018-08-22T22:20:01.740Z,21.70
2018-08-22T22:22:29.352Z,21.60
2018-08-22T22:24:57.683Z,21.50
2018-08-22T22:27:25.305Z,21.40
2018-08-22T22:29:52.843Z,21.40
2018-08-22T22:32:21.172Z,21.30
2018-08-22T22:34:48.739Z,21.20
2018-08-22T22:37:16.342Z,21.20
2018-08-22T22:39:44.676Z,21.10
2018-08-22T22:42:12.249Z,21.10
2018-08-22T22:44:40.286Z,21.10
2018-08-22T22:47:07.853Z,21.00
2018-08-22T22:49:35.409Z,21.20
2018-08-22T22:52:03.008Z,21.20
2018-08-22T22:54:30.581Z,21.10
2018-08-22T22:56:58.150Z,21.10
2018-08-22T22:59:25.751Z,21.00
2018-08-22T23:01:53.316Z,21.00
2018-08-22T23:04:20.884Z,20.90
2018-08-22T23:06:48.888Z,20.90
2018-08-22T23:09:16.447Z,20.80
2018-08-22T23:11:44.014Z,20.80
2018-08-22T23:14:11.616Z,20.70
2018-08-22T23:16:39.178Z,20.70
2018-08-22T23:19:06.745Z,20.80
2018-08-22T23:21:34.341Z,20.80
2018-08-22T23:24:01.908Z,20.70
2018-08-22T23:26:29.476Z,20.70
2018-08-22T23:28:57.579Z,20.60
2018-08-22T23:31:25.147Z,20.60
2018-08-22T23:33:53.496Z,20.60
2018-08-22T23:36:21.093Z,20.60
2018-08-22T23:38:48.657Z,20.60
2018-08-22T23:41:16.233Z,20.70
2018-08-22T23:43:43.836Z,20.80
2018-08-22T23:46:11.398Z,20.70
2018-08-22T23:48:38.963Z,20.60
2018-08-22T23:51:06.589Z,20.70
2018-08-22T23:53:34.155Z,20.60
2018-08-22T23:56:01.722Z,20.70
2018-08-22T23:58:29.324Z,20.60
